Time;durP1;ratioP1;P1;durP2;ratioP2;P2;SDS_P1;SDS_P2;PMS_P1;PMS_P2;Temp;Humidity;BMP_temperature;BMP_pressure;BME280_temperature;BME280_humidity;BME280_pressure;Samples;Min_cycle;Max_cycle;Signal;HPM_P1;HPM_P2
2023/04/10 00:00:01;;;;;;;41.57;33.50;;;;;;;;;;5033394;28;20261;-50
2023/04/10 00:02:27;;;;;;;53.17;38.13;;;;;;;;;;5030459;28;20244;-50
2023/04/10 00:04:54;;;;;;;47.20;36.80;;;;;;;;;;5024106;28;20319;-54
2023/04/10 00:07:20;;;;;;;46.70;37.17;;;;;;;;;;5038918;28;20362;-52
2023/04/10 00:09:47;;;;;;;46.40;36.77;;;;;;;;;;5040604;28;20728;-51
2023/04/10 00:12:14;;;;;;;47.37;35.53;;;;;;;;;;5034018;28;20259;-52
2023/04/10 00:14:43;;;;;;;47.53;36.03;;;;;;;;;;5042710;28;20238;-52
2023/04/10 00:17:11;;;;;;;50.40;37.90;;;;;;;;;;5030084;28;20229;-52
2023/04/10 00:19:38;;;;;;;44.30;36.07;;;;;;;;;;5032155;28;20612;-52
2023/04/10 00:22:05;;;;;;;49.97;37.07;;;;;;;;;;5028724;28;20232;-50
2023/04/10 00:24:31;;;;;;;47.70;36.80;;;;;;;;;;5033674;28;20233;-52
2023/04/10 00:26:58;;;;;;;43.97;36.33;;;;;;;;;;5038802;28;20254;-52
2023/04/10 00:29:25;;;;;;;41.13;33.93;;;;;;;;;;5038508;28;20714;-51
2023/04/10 00:31:51;;;;;;;40.10;32.20;;;;;;;;;;5039045;28;20745;-52
2023/04/10 00:34:19;;;;;;;40.97;33.87;;;;;;;;;;5036322;28;20277;-50
2023/04/10 00:36:47;;;;;;;38.77;31.87;;;;;;;;;;5046638;28;20310;-52
2023/04/10 00:39:16;;;;;;;44.33;34.57;;;;;;;;;;5041502;28;20803;-52
2023/04/10 00:41:43;;;;;;;39.77;31.20;;;;;;;;;;5044403;28;20235;-51
2023/04/10 00:44:11;;;;;;;40.40;32.40;;;;;;;;;;5036964;28;20307;-52
2023/04/10 00:46:38;;;;;;;45.50;35.37;;;;;;;;;;5035599;28;20270;-56
2023/04/10 00:49:06;;;;;;;38.90;31.07;;;;;;;;;;5037033;28;20237;-52
2023/04/10 00:51:34;;;;;;;42.37;32.63;;;;;;;;;;5040613;28;20289;-50
2023/04/10 00:54:01;;;;;;;41.50;32.10;;;;;;;;;;5036423;28;20660;-52
2023/04/10 00:56:28;;;;;;;40.60;33.23;;;;;;;;;;5045228;28;20243;-52
2023/04/10 00:58:54;;;;;;;44.00;34.40;;;;;;;;;;5038100;28;20599;-53
2023/04/10 01:01:21;;;;;;;43.33;35.60;;;;;;;;;;5034817;28;20232;-52
2023/04/10 01:03:47;;;;;;;45.57;34.33;;;;;;;;;;5040439;28;20329;-51
2023/04/10 01:06:19;;;;;;;41.90;34.03;;;;;;;;;;5043948;28;20745;-52
2023/04/10 01:08:49;;;;;;;41.33;33.60;;;;;;;;;;5030889;28;20271;-52
2023/04/10 01:11:20;;;;;;;42.40;31.97;;;;;;;;;;5043964;28;20318;-52
2023/04/10 01:13:50;;;;;;;48.50;33.70;;;;;;;;;;5028846;28;20234;-52
2023/04/10 01:16:19;;;;;;;40.47;30.33;;;;;;;;;;5029887;28;20233;-51
2023/04/10 01:18:48;;;;;;;37.37;31.10;;;;;;;;;;5035273;28;20231;-52
2023/04/10 01:21:16;;;;;;;40.40;31.50;;;;;;;;;;5030289;28;20316;-51
2023/04/10 01:24:04;;;;;;;40.23;32.03;;;;;;;;;;5038018;28;20320;-51
2023/04/10 01:26:40;;;;;;;38.77;31.00;;;;;;;;;;5035976;28;20232;-51
2023/04/10 01:29:09;;;;;;;37.13;31.20;;;;;;;;;;5029000;28;20224;-52
2023/04/10 01:31:38;;;;;;;41.83;31.30;;;;;;;;;;5036195;28;20237;-52
2023/04/10 01:34:07;;;;;;;44.03;32.13;;;;;;;;;;5031214;28;20224;-52
2023/04/10 01:36:35;;;;;;;38.53;29.47;;;;;;;;;;5034474;28;20251;-51
2023/04/10 01:39:03;;;;;;;40.60;32.00;;;;;;;;;;5035034;28;20591;-51
2023/04/10 01:41:31;;;;;;;42.07;31.27;;;;;;;;;;5032900;28;20243;-51
2023/04/10 01:43:58;;;;;;;43.90;32.13;;;;;;;;;;5039378;28;20259;-51
2023/04/10 01:46:27;;;;;;;38.23;32.17;;;;;;;;;;5030148;28;20245;-52
2023/04/10 01:48:54;;;;;;;38.37;29.27;;;;;;;;;;5035663;28;20236;-52
2023/04/10 01:51:22;;;;;;;43.63;33.17;;;;;;;;;;5034316;28;20263;-52
2023/04/10 01:53:48;;;;;;;43.60;32.87;;;;;;;;;;5054338;28;20322;-51
2023/04/10 01:56:16;;;;;;;44.87;32.27;;;;;;;;;;5039593;28;20236;-51
2023/04/10 01:58:42;;;;;;;39.67;30.97;;;;;;;;;;5037648;28;20262;-52
2023/04/10 02:01:09;;;;;;;39.83;30.33;;;;;;;;;;5036526;28;20331;-53
2023/04/10 02:03:37;;;;;;;38.47;30.93;;;;;;;;;;5032375;28;20725;-52
2023/04/10 02:06:10;;;;;;;39.70;31.03;;;;;;;;;;5035478;28;20604;-51
2023/04/10 02:08:40;;;;;;;37.13;30.70;;;;;;;;;;5028321;28;20236;-53
2023/04/10 02:11:18;;;;;;;37.33;30.30;;;;;;;;;;5039175;28;20744;-52
2023/04/10 02:13:46;;;;;;;42.27;32.10;;;;;;;;;;5034434;28;20231;-51
2023/04/10 02:16:16;;;;;;;44.83;32.03;;;;;;;;;;5052820;28;20235;-51
2023/04/10 02:18:45;;;;;;;47.93;32.33;;;;;;;;;;5042961;28;20239;-52
2023/04/10 02:21:12;;;;;;;43.80;33.07;;;;;;;;;;5048709;28;20774;-52
2023/04/10 02:23:38;;;;;;;39.60;31.10;;;;;;;;;;5038160;28;20231;-52
2023/04/10 02:26:09;;;;;;;38.80;31.07;;;;;;;;;;5040197;28;20317;-51
2023/04/10 02:28:38;;;;;;;39.43;30.13;;;;;;;;;;5020382;28;20232;-51
2023/04/10 02:31:04;;;;;;;39.73;30.13;;;;;;;;;;5026164;28;20235;-52
2023/04/10 02:33:31;;;;;;;42.60;32.73;;;;;;;;;;5023646;28;20229;-51
2023/04/10 02:36:00;;;;;;;39.17;29.87;;;;;;;;;;5019730;28;20232;-51
2023/04/10 02:38:26;;;;;;;38.13;29.23;;;;;;;;;;5020116;28;20241;-51
2023/04/10 02:40:53;;;;;;;36.63;30.27;;;;;;;;;;5004203;28;20323;-52
2023/04/10 02:43:23;;;;;;;42.60;32.13;;;;;;;;;;5020781;28;20233;-51
2023/04/10 02:45:50;;;;;;;46.00;33.80;;;;;;;;;;5008079;28;20237;-52
2023/04/10 02:48:16;;;;;;;39.60;31.97;;;;;;;;;;5003775;28;20248;-52
2023/04/10 02:50:45;;;;;;;40.03;30.50;;;;;;;;;;5024508;28;20294;-52
2023/04/10 02:53:14;;;;;;;41.77;31.60;;;;;;;;;;5018698;28;20232;-52
2023/04/10 02:55:41;;;;;;;33.03;26.27;;;;;;;;;;5010904;28;20263;-51
2023/04/10 02:58:08;;;;;;;41.30;28.80;;;;;;;;;;5019522;28;20269;-52
2023/04/10 03:00:34;;;;;;;37.73;29.23;;;;;;;;;;5026203;28;20235;-52
2023/04/10 03:03:01;;;;;;;36.10;29.07;;;;;;;;;;5013565;28;20233;-52
2023/04/10 03:05:28;;;;;;;39.23;29.90;;;;;;;;;;5013011;28;20232;-52
2023/04/10 03:07:54;;;;;;;34.57;27.40;;;;;;;;;;5006648;28;20947;-52
2023/04/10 03:10:23;;;;;;;39.33;30.87;;;;;;;;;;5027588;28;20224;-53
2023/04/10 03:12:50;;;;;;;37.90;27.73;;;;;;;;;;5028197;28;20315;-52
2023/04/10 03:15:16;;;;;;;40.87;30.93;;;;;;;;;;5032478;28;20236;-51
2023/04/10 03:17:43;;;;;;;38.50;31.90;;;;;;;;;;5031550;28;20604;-52
2023/04/10 03:20:11;;;;;;;38.83;30.93;;;;;;;;;;5030315;28;20689;-53
2023/04/10 03:22:38;;;;;;;38.13;29.93;;;;;;;;;;5029012;28;20235;-52
2023/04/10 03:25:05;;;;;;;41.30;32.20;;;;;;;;;;5032661;28;20595;-52
2023/04/10 03:27:33;;;;;;;34.87;31.00;;;;;;;;;;5034909;28;20236;-52
2023/04/10 03:30:03;;;;;;;39.33;29.90;;;;;;;;;;5035566;28;20834;-52
2023/04/10 03:32:30;;;;;;;41.67;30.87;;;;;;;;;;5042215;28;20246;-53
2023/04/10 03:34:58;;;;;;;39.23;30.90;;;;;;;;;;5032638;28;20228;-52
2023/04/10 03:37:26;;;;;;;41.63;29.70;;;;;;;;;;5037382;28;20237;-51
2023/04/10 03:39:53;;;;;;;35.03;29.37;;;;;;;;;;5040395;28;20236;-52
2023/04/10 03:42:21;;;;;;;40.57;30.73;;;;;;;;;;5030507;28;20228;-52
2023/04/10 03:44:49;;;;;;;37.33;28.80;;;;;;;;;;5036167;28;20232;-53
2023/04/10 03:47:16;;;;;;;34.70;28.57;;;;;;;;;;5032475;28;20960;-52
2023/04/10 03:49:42;;;;;;;35.77;28.30;;;;;;;;;;5035019;28;20235;-51
2023/04/10 03:52:09;;;;;;;37.47;29.33;;;;;;;;;;5034643;28;20317;-52
2023/04/10 03:54:35;;;;;;;35.17;27.47;;;;;;;;;;5040096;28;20228;-52
2023/04/10 03:57:02;;;;;;;33.87;26.83;;;;;;;;;;5041989;28;20231;-52
2023/04/10 03:59:29;;;;;;;39.63;28.57;;;;;;;;;;5043491;28;20250;-52
2023/04/10 04:01:57;;;;;;;38.17;29.17;;;;;;;;;;5048150;28;20325;-52
2023/04/10 04:04:24;;;;;;;37.17;27.40;;;;;;;;;;5029435;28;20852;-52
2023/04/10 04:06:51;;;;;;;36.77;28.70;;;;;;;;;;5035941;28;20230;-53
2023/04/10 04:09:18;;;;;;;35.53;27.70;;;;;;;;;;5037995;28;20278;-51
2023/04/10 04:11:45;;;;;;;36.10;26.60;;;;;;;;;;5028893;28;20508;-52
2023/04/10 04:14:11;;;;;;;37.70;28.03;;;;;;;;;;5032757;28;20327;-51
2023/04/10 04:16:38;;;;;;;39.60;27.83;;;;;;;;;;5039396;28;20235;-52
2023/04/10 04:19:07;;;;;;;34.23;27.33;;;;;;;;;;5031214;28;20236;-51
2023/04/10 04:21:33;;;;;;;32.30;26.27;;;;;;;;;;5049225;28;20250;-52
2023/04/10 04:24:00;;;;;;;37.37;27.80;;;;;;;;;;5037335;28;20322;-52
2023/04/10 04:26:27;;;;;;;34.20;26.27;;;;;;;;;;5035985;28;20240;-51
2023/04/10 04:28:54;;;;;;;33.27;26.77;;;;;;;;;;5034166;28;20239;-52
2023/04/10 04:31:21;;;;;;;32.63;26.53;;;;;;;;;;5032736;28;20242;-51
2023/04/10 04:33:47;;;;;;;33.40;26.13;;;;;;;;;;5040724;28;20236;-52
2023/04/10 04:36:15;;;;;;;34.07;25.80;;;;;;;;;;5032592;28;20228;-52
2023/04/10 04:38:42;;;;;;;36.33;27.97;;;;;;;;;;5036899;28;20252;-51
2023/04/10 04:41:09;;;;;;;33.77;26.37;;;;;;;;;;5046495;28;20525;-52
2023/04/10 04:43:38;;;;;;;37.30;27.00;;;;;;;;;;5040465;28;20309;-50
2023/04/10 04:46:04;;;;;;;35.70;26.83;;;;;;;;;;5032467;28;20287;-50
2023/04/10 04:48:31;;;;;;;32.87;26.43;;;;;;;;;;5039520;28;20649;-50
2023/04/10 04:50:58;;;;;;;34.03;25.67;;;;;;;;;;5043669;28;20235;-53
2023/04/10 04:53:26;;;;;;;33.73;26.70;;;;;;;;;;5038548;28;20225;-52
2023/04/10 04:55:53;;;;;;;32.50;26.07;;;;;;;;;;5035376;28;20239;-52
2023/04/10 04:58:20;;;;;;;38.30;27.23;;;;;;;;;;5034793;28;20242;-51
2023/04/10 05:00:46;;;;;;;31.83;25.97;;;;;;;;;;5043423;28;20239;-51
2023/04/10 05:03:13;;;;;;;34.67;26.23;;;;;;;;;;5044462;28;20610;-52
2023/04/10 05:05:40;;;;;;;34.37;27.73;;;;;;;;;;5043556;28;20744;-50
2023/04/10 05:08:06;;;;;;;34.93;25.87;;;;;;;;;;5042320;28;20238;-52
2023/04/10 05:10:34;;;;;;;29.40;25.80;;;;;;;;;;5046309;28;20282;-52
2023/04/10 05:13:01;;;;;;;35.63;25.87;;;;;;;;;;5039529;28;20254;-50
2023/04/10 05:15:28;;;;;;;33.33;25.73;;;;;;;;;;5040056;28;20225;-50
2023/04/10 05:17:55;;;;;;;34.03;26.90;;;;;;;;;;5049797;28;20236;-52
2023/04/10 05:20:21;;;;;;;32.40;26.90;;;;;;;;;;5039619;28;20235;-50
2023/04/10 05:22:51;;;;;;;36.73;26.67;;;;;;;;;;5036605;28;20281;-51
2023/04/10 05:25:18;;;;;;;33.57;25.80;;;;;;;;;;5044877;28;20717;-52
2023/04/10 05:27:46;;;;;;;35.20;27.93;;;;;;;;;;5031043;28;20540;-52
2023/04/10 05:30:13;;;;;;;29.57;23.83;;;;;;;;;;5028989;28;20361;-51
2023/04/10 05:32:40;;;;;;;28.57;23.63;;;;;;;;;;5037673;28;20694;-55
2023/04/10 05:35:07;;;;;;;32.63;22.27;;;;;;;;;;5031782;28;20260;-51
2023/04/10 05:37:34;;;;;;;27.60;21.27;;;;;;;;;;5040450;28;20786;-52
2023/04/10 05:40:01;;;;;;;26.57;18.60;;;;;;;;;;5041610;28;20726;-52
2023/04/10 05:42:28;;;;;;;20.93;17.63;;;;;;;;;;5043651;28;20228;-52
2023/04/10 05:44:56;;;;;;;28.27;20.03;;;;;;;;;;5026464;28;20234;-52
2023/04/10 05:47:23;;;;;;;21.60;17.47;;;;;;;;;;5034053;28;20223;-51
2023/04/10 05:49:49;;;;;;;19.57;17.13;;;;;;;;;;5032500;28;20228;-52
2023/04/10 05:52:16;;;;;;;25.60;17.60;;;;;;;;;;5033903;28;20252;-51
2023/04/10 05:54:46;;;;;;;32.90;20.13;;;;;;;;;;5033297;28;20239;-50
2023/04/10 05:57:13;;;;;;;27.40;19.33;;;;;;;;;;5039470;28;20243;-51
2023/04/10 05:59:40;;;;;;;25.67;17.70;;;;;;;;;;5036734;28;20239;-51
2023/04/10 06:02:08;;;;;;;21.07;16.70;;;;;;;;;;5041630;28;20729;-50
2023/04/10 06:04:35;;;;;;;25.33;17.73;;;;;;;;;;5037165;28;20240;-51
2023/04/10 06:07:01;;;;;;;25.63;17.23;;;;;;;;;;5035705;28;20381;-50
2023/04/10 06:09:28;;;;;;;24.13;17.77;;;;;;;;;;5032729;28;20237;-50
2023/04/10 06:11:55;;;;;;;28.53;17.73;;;;;;;;;;5039336;28;20327;-50
2023/04/10 06:14:22;;;;;;;24.83;17.60;;;;;;;;;;5042861;28;20231;-50
2023/04/10 06:16:48;;;;;;;21.30;17.60;;;;;;;;;;5032945;28;20326;-52
2023/04/10 06:19:16;;;;;;;22.63;16.70;;;;;;;;;;5045596;28;20228;-50
2023/04/10 06:21:43;;;;;;;19.90;15.80;;;;;;;;;;5038564;28;20238;-52
2023/04/10 06:24:14;;;;;;;31.43;20.07;;;;;;;;;;5043899;28;20243;-51
2023/04/10 06:26:41;;;;;;;25.07;18.67;;;;;;;;;;5042887;28;20223;-51
2023/04/10 06:29:11;;;;;;;21.27;17.70;;;;;;;;;;5037393;28;20244;-52
2023/04/10 06:31:37;;;;;;;24.60;17.83;;;;;;;;;;5035875;28;20236;-52
2023/04/10 06:34:04;;;;;;;29.27;20.80;;;;;;;;;;5039931;28;20234;-53
2023/04/10 06:36:32;;;;;;;31.17;22.53;;;;;;;;;;5044518;28;20780;-52
2023/04/10 06:38:59;;;;;;;28.53;20.63;;;;;;;;;;5041828;28;20236;-52
2023/04/10 06:41:25;;;;;;;25.23;20.33;;;;;;;;;;5044482;28;20248;-51
2023/04/10 06:43:53;;;;;;;25.43;20.43;;;;;;;;;;5035688;28;20302;-52
2023/04/10 06:46:19;;;;;;;23.80;20.90;;;;;;;;;;5037396;28;20231;-52
2023/04/10 06:48:46;;;;;;;28.80;20.03;;;;;;;;;;5041432;28;20232;-52
2023/04/10 06:51:13;;;;;;;31.47;23.53;;;;;;;;;;5041182;28;20231;-51
2023/04/10 06:53:41;;;;;;;30.03;23.10;;;;;;;;;;5043244;28;20234;-51
2023/04/10 06:56:08;;;;;;;30.27;23.37;;;;;;;;;;5037036;28;20289;-52
2023/04/10 06:58:35;;;;;;;28.43;21.30;;;;;;;;;;5035139;28;20239;-52
2023/04/10 07:01:03;;;;;;;31.47;24.63;;;;;;;;;;5056804;28;20284;-52
2023/04/10 07:03:30;;;;;;;34.13;24.60;;;;;;;;;;5056836;28;20274;-51
2023/04/10 07:05:57;;;;;;;33.60;24.73;;;;;;;;;;5061338;28;20740;-54
2023/04/10 07:08:24;;;;;;;31.57;24.77;;;;;;;;;;5056250;28;20241;-53
2023/04/10 07:10:52;;;;;;;35.60;25.20;;;;;;;;;;5061345;28;20347;-52
2023/04/10 07:13:19;;;;;;;32.57;25.57;;;;;;;;;;5044009;28;20235;-51
2023/04/10 07:15:45;;;;;;;32.23;24.90;;;;;;;;;;5048191;28;20227;-52
2023/04/10 07:18:15;;;;;;;28.30;23.00;;;;;;;;;;5044546;28;20239;-54
2023/04/10 07:20:41;;;;;;;31.10;23.80;;;;;;;;;;5060311;28;20247;-52
2023/04/10 07:23:11;;;;;;;27.50;23.33;;;;;;;;;;5041308;28;20228;-52
2023/04/10 07:25:37;;;;;;;27.43;23.33;;;;;;;;;;5049217;28;20232;-53
2023/04/10 07:28:05;;;;;;;27.17;23.17;;;;;;;;;;5043554;28;20325;-52
2023/04/10 07:30:32;;;;;;;26.73;22.43;;;;;;;;;;5045848;28;20224;-52
2023/04/10 07:32:59;;;;;;;28.40;23.47;;;;;;;;;;5049338;28;20232;-52
2023/04/10 07:35:26;;;;;;;28.33;23.33;;;;;;;;;;5046740;28;20235;-52
2023/04/10 07:37:53;;;;;;;31.33;26.23;;;;;;;;;;5042475;28;20315;-51
2023/04/10 07:40:20;;;;;;;39.27;26.43;;;;;;;;;;5044472;28;20220;-52
2023/04/10 07:42:46;;;;;;;31.57;24.80;;;;;;;;;;5038778;28;20322;-52
2023/04/10 07:45:15;;;;;;;29.13;24.30;;;;;;;;;;5047021;28;20302;-52
2023/04/10 07:47:42;;;;;;;32.27;26.17;;;;;;;;;;5046765;28;20227;-51
2023/04/10 07:50:09;;;;;;;33.97;26.30;;;;;;;;;;5051149;28;20232;-54
2023/04/10 07:52:36;;;;;;;33.20;25.70;;;;;;;;;;5051728;28;20285;-55
2023/04/10 07:55:02;;;;;;;35.50;26.73;;;;;;;;;;5046319;28;20232;-53
2023/04/10 07:57:32;;;;;;;35.73;26.93;;;;;;;;;;5046174;28;20231;-53
2023/04/10 07:59:58;;;;;;;36.13;27.43;;;;;;;;;;5045965;28;20713;-52
2023/04/10 08:02:26;;;;;;;34.93;27.17;;;;;;;;;;5045062;28;20765;-51
2023/04/10 08:04:53;;;;;;;35.43;26.43;;;;;;;;;;5045102;28;20278;-52
2023/04/10 08:07:20;;;;;;;34.13;27.47;;;;;;;;;;5044336;28;20309;-51
2023/04/10 08:09:47;;;;;;;33.20;26.30;;;;;;;;;;5032192;28;20559;-52
2023/04/10 08:12:14;;;;;;;32.93;27.33;;;;;;;;;;5044303;28;20235;-52
2023/04/10 08:14:42;;;;;;;33.90;25.53;;;;;;;;;;5043377;28;20243;-52
2023/04/10 08:17:13;;;;;;;34.50;25.67;;;;;;;;;;5041650;28;20326;-52
2023/04/10 08:19:41;;;;;;;33.77;25.93;;;;;;;;;;5058044;28;20319;-52
2023/04/10 08:22:08;;;;;;;30.77;24.45;;;;;;;;;;5021436;28;20737;-52
2023/04/10 08:24:38;;;;;;;31.88;23.75;;;;;;;;;;5013934;28;20237;-52
2023/04/10 08:27:05;;;;;;;34.55;25.20;;;;;;;;;;5031871;28;20229;-52
2023/04/10 08:29:31;;;;;;;29.95;23.55;;;;;;;;;;5023894;28;20302;-52
2023/04/10 08:31:59;;;;;;;29.40;23.75;;;;;;;;;;5015776;28;20241;-52
2023/04/10 08:34:26;;;;;;;28.25;23.67;;;;;;;;;;5012244;28;20320;-52
2023/04/10 08:36:54;;;;;;;24.55;20.55;;;;;;;;;;5018765;28;20237;-51
2023/04/10 08:39:21;;;;;;;44.25;37.50;;;;;;;;;;5015810;28;20241;-53
2023/04/10 08:41:47;;;;;;;34.78;26.05;;;;;;;;;;5022367;28;20240;-53
2023/04/10 08:44:14;;;;;;;30.98;24.60;;;;;;;;;;5018839;28;20875;-53
2023/04/10 08:46:42;;;;;;;30.17;23.80;;;;;;;;;;5020153;28;20235;-52
2023/04/10 08:49:10;;;;;;;28.27;22.08;;;;;;;;;;5021371;28;20644;-53
2023/04/10 08:51:39;;;;;;;28.65;23.52;;;;;;;;;;5016863;28;20232;-52
2023/04/10 08:54:08;;;;;;;30.98;24.63;;;;;;;;;;5020395;28;20236;-52
2023/04/10 08:56:35;;;;;;;30.98;24.40;;;;;;;;;;5014559;28;20290;-52
2023/04/10 08:59:02;;;;;;;24.73;22.02;;;;;;;;;;5012057;28;20228;-51
2023/04/10 09:01:29;;;;;;;28.95;22.20;;;;;;;;;;5013975;28;20264;-51
2023/04/10 09:03:55;;;;;;;28.13;23.65;;;;;;;;;;5016512;28;20237;-52
2023/04/10 09:06:22;;;;;;;30.33;21.73;;;;;;;;;;5021029;28;20236;-51
2023/04/10 09:08:49;;;;;;;23.17;20.33;;;;;;;;;;5018859;28;20244;-51
2023/04/10 09:11:17;;;;;;;28.65;23.05;;;;;;;;;;5024232;28;20228;-53
2023/04/10 09:13:45;;;;;;;26.13;21.17;;;;;;;;;;5015919;28;20241;-50
2023/04/10 09:16:11;;;;;;;29.23;22.55;;;;;;;;;;5017355;28;20234;-51
2023/04/10 09:18:42;;;;;;;24.42;21.13;;;;;;;;;;5018022;28;20245;-52
2023/04/10 09:21:09;;;;;;;30.80;21.13;;;;;;;;;;5034560;28;20699;-51
2023/04/10 09:23:36;;;;;;;24.67;20.83;;;;;;;;;;5034940;28;20236;-52
2023/04/10 09:26:06;;;;;;;26.33;20.20;;;;;;;;;;5040050;28;20624;-52
2023/04/10 09:28:54;;;;;;;26.42;19.98;;;;;;;;;;5040707;28;20254;-52
2023/04/10 09:31:27;;;;;;;24.58;19.17;;;;;;;;;;5038688;28;20224;-53
2023/04/10 09:34:06;;;;;;;26.13;18.85;;;;;;;;;;5034930;28;20259;-51
2023/04/10 09:36:36;;;;;;;23.65;18.85;;;;;;;;;;5037011;28;20237;-52
2023/04/10 09:39:02;;;;;;;21.92;18.83;;;;;;;;;;5031629;28;20246;-53
2023/04/10 09:41:29;;;;;;;21.88;18.33;;;;;;;;;;5036035;28;20592;-51
2023/04/10 09:44:07;;;;;;;22.80;18.63;;;;;;;;;;5039474;28;20286;-55
2023/04/10 09:46:34;;;;;;;20.38;17.73;;;;;;;;;;5035964;28;20608;-50
2023/04/10 09:49:03;;;;;;;22.60;16.73;;;;;;;;;;5036291;28;20293;-52
2023/04/10 09:51:31;;;;;;;21.27;16.95;;;;;;;;;;5035010;28;20579;-52
2023/04/10 09:53:59;;;;;;;21.48;17.38;;;;;;;;;;5035510;28;20264;-51
2023/04/10 09:56:26;;;;;;;19.75;16.73;;;;;;;;;;5033564;28;20236;-52
2023/04/10 09:58:56;;;;;;;19.58;15.75;;;;;;;;;;5037503;28;20328;-52
2023/04/10 10:01:25;;;;;;;21.73;17.10;;;;;;;;;;5036531;28;20295;-52
2023/04/10 10:03:54;;;;;;;23.23;17.67;;;;;;;;;;5040787;28;20243;-53
2023/04/10 10:06:20;;;;;;;18.13;13.02;;;;;;;;;;5035510;28;20326;-52
2023/04/10 10:08:48;;;;;;;13.82;11.23;;;;;;;;;;5034812;28;20301;-51
2023/04/10 10:11:16;;;;;;;12.90;11.55;;;;;;;;;;5037869;28;20655;-52
2023/04/10 10:13:46;;;;;;;13.50;11.35;;;;;;;;;;5038873;28;20227;-52
2023/04/10 10:16:18;;;;;;;10.88;9.63;;;;;;;;;;5037907;28;20235;-52
2023/04/10 10:18:51;;;;;;;14.82;12.23;;;;;;;;;;5033380;28;20730;-51
2023/04/10 10:21:22;;;;;;;16.85;12.13;;;;;;;;;;5035978;28;20236;-52
2023/04/10 10:23:52;;;;;;;16.85;12.70;;;;;;;;;;5036628;28;20223;-51
2023/04/10 10:26:20;;;;;;;15.40;11.98;;;;;;;;;;5028281;28;20223;-51
2023/04/10 10:28:47;;;;;;;12.80;10.30;;;;;;;;;;5030960;28;20250;-54
2023/04/10 10:31:14;;;;;;;13.20;10.55;;;;;;;;;;5037488;28;20252;-52
2023/04/10 10:33:41;;;;;;;13.70;10.57;;;;;;;;;;5025546;28;20236;-51
2023/04/10 10:36:12;;;;;;;15.73;11.68;;;;;;;;;;5035951;28;20231;-52
2023/04/10 10:38:41;;;;;;;15.43;10.30;;;;;;;;;;5033000;28;20234;-51
2023/04/10 10:41:10;;;;;;;11.10;9.95;;;;;;;;;;5032311;28;20235;-50
2023/04/10 10:43:44;;;;;;;13.52;10.00;;;;;;;;;;5030032;28;20236;-51
2023/04/10 10:46:13;;;;;;;10.93;9.20;;;;;;;;;;5031152;28;20231;-51
2023/04/10 10:48:40;;;;;;;12.43;9.23;;;;;;;;;;5033555;28;20798;-52
2023/04/10 10:51:07;;;;;;;12.63;10.45;;;;;;;;;;5033544;28;20266;-52
2023/04/10 10:53:37;;;;;;;11.98;9.48;;;;;;;;;;5032330;28;20237;-52
2023/04/10 10:56:22;;;;;;;11.32;8.80;;;;;;;;;;5045736;28;20317;-52
2023/04/10 10:58:50;;;;;;;11.88;9.65;;;;;;;;;;5035144;28;20262;-53
2023/04/10 11:01:17;;;;;;;12.95;11.30;;;;;;;;;;5033940;28;20227;-51
2023/04/10 11:03:44;;;;;;;12.82;9.93;;;;;;;;;;5035288;28;20586;-52
2023/04/10 11:06:12;;;;;;;10.55;8.77;;;;;;;;;;5024075;28;20224;-51
2023/04/10 11:08:43;;;;;;;10.10;7.82;;;;;;;;;;5034711;28;20686;-50
2023/04/10 11:11:11;;;;;;;18.27;9.80;;;;;;;;;;5037872;28;20242;-51
2023/04/10 11:13:39;;;;;;;9.77;8.35;;;;;;;;;;5039927;28;20235;-51
2023/04/10 11:16:09;;;;;;;9.93;8.88;;;;;;;;;;5039951;28;20232;-52
2023/04/10 11:18:54;;;;;;;13.10;9.85;;;;;;;;;;5039831;28;20339;-53
2023/04/10 11:21:21;;;;;;;10.98;9.18;;;;;;;;;;5039365;28;20755;-52
2023/04/10 11:24:04;;;;;;;16.90;10.25;;;;;;;;;;5031987;28;20231;-51
2023/04/10 11:26:37;;;;;;;14.55;9.13;;;;;;;;;;5035589;28;20650;-51
2023/04/10 11:29:04;;;;;;;13.77;9.38;;;;;;;;;;5029285;28;20240;-50
2023/04/10 11:31:31;;;;;;;12.35;10.02;;;;;;;;;;5032113;28;20232;-50
2023/04/10 11:34:02;;;;;;;10.68;9.57;;;;;;;;;;5034228;28;20997;-51
2023/04/10 11:36:29;;;;;;;9.40;8.43;;;;;;;;;;5027269;28;20260;-50
2023/04/10 11:38:56;;;;;;;9.85;8.30;;;;;;;;;;5029673;28;20626;-51
2023/04/10 11:41:29;;;;;;;10.27;8.35;;;;;;;;;;5042309;28;20320;-52
2023/04/10 11:43:59;;;;;;;9.23;8.13;;;;;;;;;;5038697;28;20350;-50
2023/04/10 11:46:25;;;;;;;8.93;7.70;;;;;;;;;;5047822;28;20306;-52
2023/04/10 11:48:53;;;;;;;11.50;8.05;;;;;;;;;;5064570;28;20769;-50
2023/04/10 11:51:20;;;;;;;8.43;7.50;;;;;;;;;;5064472;28;20288;-51
2023/04/10 11:53:47;;;;;;;11.23;8.45;;;;;;;;;;5066381;28;20231;-52
2023/04/10 11:56:18;;;;;;;9.20;7.78;;;;;;;;;;5052358;28;20318;-51
2023/04/10 11:58:47;;;;;;;9.13;8.05;;;;;;;;;;5036571;28;20653;-50
2023/04/10 12:01:14;;;;;;;10.98;7.63;;;;;;;;;;5031827;28;20502;-52
2023/04/10 12:03:41;;;;;;;9.48;7.75;;;;;;;;;;5028970;28;20251;-51
2023/04/10 12:06:10;;;;;;;11.95;8.88;;;;;;;;;;5038647;28;20656;-51
2023/04/10 12:08:37;;;;;;;12.95;9.20;;;;;;;;;;5047294;28;20248;-51
2023/04/10 12:11:04;;;;;;;10.75;8.65;;;;;;;;;;5048954;28;20232;-52
2023/04/10 12:13:31;;;;;;;10.82;8.65;;;;;;;;;;5044441;28;20231;-51
2023/04/10 12:16:01;;;;;;;12.13;8.82;;;;;;;;;;5047772;28;20612;-51
2023/04/10 12:18:28;;;;;;;11.00;8.65;;;;;;;;;;5045998;28;20238;-52
2023/04/10 12:20:56;;;;;;;12.30;8.63;;;;;;;;;;5046999;28;20236;-53
2023/04/10 12:23:23;;;;;;;9.25;8.27;;;;;;;;;;5046705;28;20714;-52
2023/04/10 12:25:50;;;;;;;11.45;7.55;;;;;;;;;;5059118;28;20232;-52
2023/04/10 12:28:18;;;;;;;10.40;8.20;;;;;;;;;;5041071;28;20232;-52
2023/04/10 12:30:48;;;;;;;8.98;7.25;;;;;;;;;;5039151;28;20281;-51
2023/04/10 12:33:20;;;;;;;9.05;8.15;;;;;;;;;;5049157;28;20258;-53
2023/04/10 12:35:49;;;;;;;9.05;7.93;;;;;;;;;;5061605;28;20693;-51
2023/04/10 12:38:16;;;;;;;8.93;7.95;;;;;;;;;;5052499;28;20267;-51
2023/04/10 12:40:57;;;;;;;11.85;7.28;;;;;;;;;;5067085;28;20231;-53
2023/04/10 12:43:31;;;;;;;9.50;7.68;;;;;;;;;;5034601;28;20239;-51
2023/04/10 12:45:57;;;;;;;8.80;7.93;;;;;;;;;;5045195;28;20327;-52
2023/04/10 12:48:26;;;;;;;8.88;7.97;;;;;;;;;;5061861;28;20246;-50
2023/04/10 12:50:52;;;;;;;8.88;7.05;;;;;;;;;;5059323;28;20315;-51
2023/04/10 12:53:19;;;;;;;9.38;6.65;;;;;;;;;;5046190;28;20235;-51
2023/04/10 12:55:57;;;;;;;6.43;4.60;;;;;;;;;;5045949;28;20231;-50
2023/04/10 12:58:26;;;;;;;4.90;4.30;;;;;;;;;;5046379;28;20235;-52
2023/04/10 13:00:53;;;;;;;4.80;4.28;;;;;;;;;;5045385;28;20709;-52
2023/04/10 13:03:20;;;;;;;8.38;4.45;;;;;;;;;;5047920;28;20244;-51
2023/04/10 13:05:48;;;;;;;5.00;4.50;;;;;;;;;;5044856;28;20793;-52
2023/04/10 13:08:15;;;;;;;7.55;5.03;;;;;;;;;;5029988;28;20236;-52
2023/04/10 13:10:42;;;;;;;5.68;4.25;;;;;;;;;;5046177;28;20294;-52
2023/04/10 13:13:10;;;;;;;6.03;5.07;;;;;;;;;;5044616;28;20232;-51
2023/04/10 13:15:37;;;;;;;6.72;4.93;;;;;;;;;;5044581;28;20232;-52
2023/04/10 13:18:05;;;;;;;9.05;5.28;;;;;;;;;;5032613;28;20755;-51
2023/04/10 13:20:32;;;;;;;8.07;5.72;;;;;;;;;;5066952;28;20227;-51
2023/04/10 13:23:01;;;;;;;9.32;5.50;;;;;;;;;;5046751;28;20238;-51
2023/04/10 13:25:28;;;;;;;6.65;5.93;;;;;;;;;;5031429;28;20232;-52
2023/04/10 13:27:54;;;;;;;8.80;6.60;;;;;;;;;;5043372;28;20269;-50
2023/04/10 13:30:21;;;;;;;8.07;6.45;;;;;;;;;;5049578;28;20236;-51
2023/04/10 13:32:48;;;;;;;9.48;6.60;;;;;;;;;;5044589;28;20266;-53
2023/04/10 13:35:15;;;;;;;7.47;6.70;;;;;;;;;;5053217;28;20444;-52
2023/04/10 13:37:42;;;;;;;11.15;8.65;;;;;;;;;;5045395;28;20289;-51
2023/04/10 13:40:10;;;;;;;10.07;7.47;;;;;;;;;;5052212;28;20234;-52
2023/04/10 13:42:37;;;;;;;7.60;6.78;;;;;;;;;;5036129;28;20236;-52
2023/04/10 13:45:04;;;;;;;8.98;7.10;;;;;;;;;;5045921;28;20251;-52
2023/04/10 13:47:31;;;;;;;8.52;7.30;;;;;;;;;;5029879;28;20252;-52
2023/04/10 13:49:57;;;;;;;8.95;7.10;;;;;;;;;;5043966;28;20777;-52
2023/04/10 13:52:23;;;;;;;7.70;6.90;;;;;;;;;;5046176;28;20234;-53
2023/04/10 13:54:50;;;;;;;9.40;7.32;;;;;;;;;;5045017;28;20303;-50
2023/04/10 13:57:17;;;;;;;8.77;7.88;;;;;;;;;;5043117;28;20238;-57
2023/04/10 13:59:44;;;;;;;7.70;6.93;;;;;;;;;;5037228;28;20239;-52
2023/04/10 14:02:10;;;;;;;12.23;7.55;;;;;;;;;;5045149;28;20235;-51
2023/04/10 14:04:37;;;;;;;7.45;6.63;;;;;;;;;;5041140;28;21420;-52
2023/04/10 14:07:04;;;;;;;8.27;6.85;;;;;;;;;;5043077;28;20721;-51
2023/04/10 14:09:31;;;;;;;10.82;6.80;;;;;;;;;;5040659;28;20324;-51
2023/04/10 14:11:58;;;;;;;10.30;6.45;;;;;;;;;;5031465;28;20290;-52
2023/04/10 14:14:26;;;;;;;13.05;7.30;;;;;;;;;;5015436;28;20232;-51
2023/04/10 14:16:52;;;;;;;8.00;7.20;;;;;;;;;;5034260;28;20230;-51
2023/04/10 14:19:19;;;;;;;11.88;6.75;;;;;;;;;;5040494;28;20232;-51
2023/04/10 14:21:46;;;;;;;9.30;7.43;;;;;;;;;;5042229;28;20232;-52
2023/04/10 14:24:13;;;;;;;7.05;6.38;;;;;;;;;;5043368;28;20614;-52